Station: TARCOOLA

  Atmospheric Gas Attenuation - ITU Rec 676-11   --------------- db/100km ---------------
Date Time Temp RH % AH g/m3 Dew Point Wind Direction Speed kph Gust kph Barometer mB Rainfall Since 9am 24GHz 47GHz 76GHz 122GHz 134GHz 241GHz
13 08:30 3.2 93 5.61 2.2 0 0 1029.1 0.2 13.6 24.6 33.1 86.3 70.9 240.4
13 08:20 1.8 92 5.05 0.6 0 0 1028.8 0.2 12.5 24.0 31.4 81.6 64.4 217.5
13 08:10 1.4 93 4.97 0.4 0 0 1028.6 0.2 12.3 24.0 31.2 81.1 63.7 214.8
13 08:00 0.1 92 4.49 -1 0 0 1028.8 0.2 11.3 23.5 29.7 77.1 58.2 195.2
13 07:50 -0.6 92 4.28 -1.7 0 0 1028.4 0.2 10.9 23.4 29.1 75.5 55.8 186.8
13 07:40 -0.6 92 4.28 -1.7 0 0 1028.4 0.2 10.9 23.4 29.1 75.5 55.8 186.8
13 07:30 -0.6 92 4.28 -1.7 0 0 1028.3 0.2 10.9 23.4 29.1 75.5 55.8 186.8
13 07:20 -0.5 92 4.31 -1.6 0 0 1028 0.2 10.9 23.4 29.2 75.7 56.1 187.9
13 07:10 -0.4 92 4.34 -1.5 0 0 1028 0.2 11.0 23.4 29.3 75.9 56.4 189.1
13 07:00 -0.3 92 4.37 -1.4 0 0 1028.1 0.2 11.1 23.4 29.3 76.1 56.8 190.3
13 06:50 -0.2 92 4.4 -1.3 0 0 1027.8 0.2 11.1 23.4 29.4 76.3 57.1 191.5
13 06:40 -0.1 92 4.43 -1.2 0 0 1027.5 0.2 11.2 23.4 29.5 76.5 57.4 192.6
13 06:30 0 92 4.46 -1.1 0 0 1027.5 0.2 11.2 23.5 29.6 76.8 57.7 193.8
13 06:20 0.5 92 4.62 -0.6 0 0 1027.1 0.2 11.6 23.6 30.0 78.0 59.5 200.1
13 06:10 0.9 92 4.75 -0.2 0 0 1027.1 0.2 11.8 23.7 30.4 79.0 61.0 205.3
13 06:00 1.5 92 4.95 0.3 0 0 1027.3 0.2 12.3 23.9 31.0 80.6 63.2 213.3
13 05:50 1.6 92 4.98 0.4 0 0 1027.1 0.2 12.3 23.9 31.1 80.8 63.5 214.4
13 05:40 1.1 92 4.81 -0.1 6 6 1027.1 0.2 12.0 23.7 30.6 79.5 61.6 207.6
13 05:30 1.4 92 4.91 0.2 7 9 1027.2 0.2 12.2 23.8 30.9 80.3 62.8 211.6
13 05:20 1.6 92 4.98 0.4 7 9 1027.1 0.2 12.3 23.9 31.1 80.8 63.5 214.4
13 05:10 1.5 92 4.95 0.3 7 7 1027.2 0.2 12.3 23.9 31.0 80.6 63.2 213.3
13 04:50 1.1 91 4.76 -0.2 7 7 1027.3 0.2 11.9 23.7 30.4 79.0 61.0 205.3
13 04:40 1.3 91 4.83 0 7 9 1027.2 0.2 12.0 23.7 30.6 79.5 61.8 208.1
13 04:30 1.4 91 4.86 0.1 9 9 1027.3 0.2 12.1 23.7 30.7 79.8 62.1 209.3
13 04:20 2.2 92 5.19 1 9 9 1027.2 0.2 12.7 24.1 31.7 82.5 65.9 222.8
13 04:10 1.8 91 4.99 0.5 9 9 1027.1 0.2 12.3 23.8 31.1 80.8 63.5 214.3
13 04:00 1.8 91 4.99 0.5 9 9 1027.3 0.2 12.3 23.9 31.1 80.8 63.5 214.4
13 03:50 1.8 91 4.99 0.5 7 9 1027.2 0.2 12.3 23.9 31.1 80.8 63.5 214.4
13 03:40 2.1 91 5.1 0.8 7 9 1027.1 0.2 12.6 24.0 31.4 81.6 64.8 218.8
13 03:30 2.2 90 5.07 0.7 7 7 1027.1 0.2 12.5 23.9 31.2 81.2 64.3 217.1
13 03:20 3 91 5.42 1.7 7 7 1027 0.2 13.2 24.2 32.3 84.2 68.3 231.4
13 03:10 3.4 91 5.56 2.1 6 6 1027.1 0.2 13.5 24.4 32.8 85.3 69.9 237.0
13 03:00 3.2 91 5.49 1.9 7 9 1027.3 0.2 13.4 24.3 32.6 84.8 69.1 234.3
13 02:50 3.7 91 5.68 2.4 7 9 1027.2 0.2 13.7 24.5 33.1 86.3 71.3 241.8
13 02:40 3.7 91 5.68 2.4 9 11 1027.1 0.2 13.7 24.5 33.1 86.3 71.3 241.8
13 02:30 3.8 91 5.71 2.5 9 9 1027.3 0.2 13.8 24.5 33.2 86.6 71.6 243.0
13 02:20 3.5 90 5.54 2 9 9 1027.2 0.2 13.5 24.3 32.6 85.0 69.5 235.7
13 02:10 3.8 90 5.65 2.3 11 11 1027.1 0.2 13.7 24.4 33.0 85.9 70.8 240.1
13 02:00 3.9 90 5.69 2.4 9 11 1027.1 0.2 13.8 24.4 33.1 86.2 71.2 241.7
13 01:50 3.9 90 5.69 2.4 11 11 1027 0.2 13.8 24.4 33.1 86.2 71.2 241.6
13 01:40 4 89 5.66 2.4 9 11 1027.1 0.2 13.7 24.4 32.9 85.8 70.7 239.9
13 01:30 4.2 89 5.74 2.6 11 13 1027.2 0.2 13.9 24.4 33.2 86.4 71.6 243.1
13 01:20 4.1 89 5.7 2.5 11 11 1027.1 0.2 13.8 24.4 33.1 86.1 71.2 241.5
13 01:10 4.2 88 5.67 2.4 11 13 1027 0.2 13.7 24.3 32.9 85.7 70.7 239.8
13 01:00 4.6 88 5.83 2.8 11 13 1027 0.2 14.0 24.5 33.4 87.0 72.5 246.1
13 00:50 5 88 5.98 3.2 11 13 1027 0.2 14.3 24.6 33.8 88.2 74.1 252.0
13 00:40 5.2 88 6.06 3.4 13 13 1027.1 0.2 14.5 24.7 34.1 88.8 75.0 255.2
13 00:30 5.2 89 6.13 3.5 11 13 1027.2 0.2 14.7 24.8 34.4 89.6 76.0 258.6
13 00:20 4.7 87 5.8 2.7 11 11 1027.1 0.2 14.0 24.4 33.2 86.5 72.0 244.4
13 00:10 4.8 87 5.84 2.8 11 11 1027.1 0.2 14.1 24.4 33.3 86.9 72.4 246.0
13 00:00 4.8 86 5.77 2.7 13 13 1027.2 0.2 13.9 24.3 33.1 86.1 71.5 242.7
12 23:50 4.7 85 5.67 2.4 11 13 1026.9 0.2 13.7 24.2 32.7 85.1 70.2 238.2
12 23:40 5 85 5.78 2.7 11 11 1026.9 0.2 13.9 24.3 33.0 86.0 71.4 242.5
12 23:30 5.1 84 5.75 2.6 11 13 1027 0.2 13.8 24.2 32.8 85.5 70.9 240.8
12 23:20 5.4 84 5.86 2.9 11 13 1026.9 0.2 14.1 24.3 33.2 86.4 72.1 245.0
12 23:10 5.4 83 5.79 2.8 11 13 1027 0.2 13.9 24.2 32.9 85.7 71.2 241.8
12 23:00 5.5 82 5.76 2.7 11 11 1027 0.2 13.9 24.1 32.7 85.2 70.7 240.0
12 22:50 5.8 82 5.88 3 11 11 1026.9 0.2 14.1 24.2 33.1 86.2 72.0 244.7
12 22:40 5.8 81 5.81 2.8 11 11 1026.9 0.2 13.9 24.1 32.8 85.4 71.1 241.5
12 22:30 6 80 5.81 2.8 9 11 1027 0.2 13.9 24.1 32.7 85.2 70.9 240.9
12 22:20 6.1 78 5.7 2.6 9 9 1026.8 0.2 13.7 23.9 32.2 83.9 69.3 235.4
12 22:10 6.4 78 5.82 2.9 11 11 1026.8 0.2 13.9 24.0 32.6 84.9 70.7 240.1
12 22:00 6.7 79 6.01 3.3 9 11 1026.8 0.2 14.3 24.2 33.2 86.6 72.9 248.0
12 21:50 6.9 79 6.08 3.5 9 9 1026.7 0.2 14.5 24.2 33.4 87.1 73.6 250.6
12 21:40 7.1 77 6.01 3.3 9 9 1026.7 0.2 14.3 24.1 33.0 86.1 72.5 246.7
12 21:30 7.7 77 6.25 3.9 9 11 1026.7 0.2 14.8 24.3 33.8 88.0 75.1 255.9
12 21:20 7.9 77 6.33 4.1 9 11 1026.5 0.2 15.0 24.4 34.0 88.7 76.0 258.9
12 21:10 8 75 6.2 3.8 9 9 1026.4 0.2 14.7 24.1 33.4 87.2 74.2 252.6
12 21:00 8 73 6.04 3.5 11 11 1026.5 0.2 14.4 23.9 32.8 85.5 72.1 245.2
12 20:50 8.4 71 6.03 3.5 11 11 1026.4 0.2 14.3 23.8 32.6 84.9 71.6 243.5
12 20:40 8.7 70 6.06 3.5 9 9 1026.3 0.2 14.4 23.7 32.6 84.9 71.7 244.0
12 20:30 9.3 71 6.38 4.3 9 11 1026.3 0.2 15.0 24.1 33.6 87.6 75.3 256.6
12 20:20 9.6 69 6.32 4.2 9 11 1026 0.2 14.9 23.9 33.2 86.6 74.2 252.9
12 20:10 10.1 68 6.43 4.5 11 11 1025.9 0.2 15.1 23.9 33.4 87.2 75.1 256.2
12 20:00 10.8 66 6.52 4.7 11 13 1025.9 0.2 15.3 23.9 33.5 87.4 75.6 258.0
12 19:50 11.5 64 6.61 4.9 11 13 1025.7 0.2 15.4 23.8 33.5 87.5 76.1 259.8
12 19:40 11.8 63 6.63 5 13 15 1025.7 0.2 15.5 23.8 33.5 87.4 76.0 259.7
12 19:30 12.1 63 6.76 5.3 13 15 1025.7 0.2 15.7 23.9 33.9 88.4 77.4 264.5
12 19:20 11.1 64 6.45 4.6 13 13 1025.5 0.2 15.1 23.7 33.1 86.3 74.4 253.9
12 19:10 10.9 60 5.97 3.5 9 9 1025.4 0.2 14.1 23.0 31.3 81.6 68.5 233.2
12 19:00 11.3 60 6.12 3.8 9 11 1025.4 0.2 14.4 23.1 31.7 82.7 70.0 238.6
12 18:50 11.8 59 6.21 4.1 9 9 1025.3 0.2 14.6 23.1 31.9 83.1 70.7 241.0
12 18:40 12.1 58 6.22 4.1 9 11 1025.2 0.2 14.6 23.1 31.8 82.9 70.6 240.5
12 18:30 12.6 56 6.2 4.1 9 11 1025.2 0.2 14.5 22.9 31.5 82.2 69.9 238.2
12 18:20 13.3 55 6.35 4.5 9 11 1025 0.2 14.8 22.9 31.8 82.9 71.1 242.5
12 18:10 14 53 6.39 4.6 13 15 1024.9 0.2 14.9 22.8 31.7 82.6 70.9 242.1
12 18:00 14.4 52 6.43 4.7 15 19 1025 0.2 14.9 22.8 31.7 82.6 71.1 242.7
12 17:50 14.8 50 6.33 4.5 15 17 1024.7 0.2 14.7 22.5 31.1 81.2 69.5 237.2
12 17:40 15.1 48 6.19 4.2 15 15 1024.6 0.2 14.4 22.2 30.5 79.5 67.6 230.4
12 17:30 15.6 47 6.25 4.3 19 24 1024.6 0.2 14.5 22.2 30.5 79.6 67.8 231.5
12 17:20 16 44 5.99 3.8 19 20 1024.5 0.2 14.0 21.7 29.5 76.7 64.4 219.6
12 17:10 16.2 43 5.93 3.6 20 20 1024.4 0.2 13.8 21.6 29.2 75.9 63.6 216.6
12 17:00 16.3 42 5.83 3.4 17 22 1024.5 0.2 13.6 21.4 28.8 74.9 62.3 212.2
12 16:50 16.7 40 5.68 3 15 19 1024.3 0.2 13.3 21.1 28.1 73.1 60.3 205.1
12 16:40 16.7 41 5.83 3.4 19 22 1024.2 0.2 13.6 21.3 28.6 74.5 62.0 211.1
12 16:30 16.4 42 5.86 3.5 15 26 1024.3 0.2 13.7 21.5 28.9 75.1 62.6 213.2
12 16:20 16.6 40 5.65 3 15 17 1024.1 0.2 13.2 21.1 28.1 72.9 60.0 204.1
12 16:10 17.2 41 6 3.8 17 19 1024 0.2 13.9 21.5 29.1 75.6 63.6 216.7
12 16:00 17.1 43 6.26 4.4 15 22 1024.1 0.2 14.5 21.9 30.0 78.2 66.7 227.5
12 15:50 16.9 44 6.33 4.6 11 13 1024 0.2 14.6 22.0 30.3 79.0 67.7 231.0

Last Refresh: 13-Jul-2020 08:47:00

Most of the information presented on this site is sourced from the Bureau of Meteorology.  Copyright in all material sourced from the Bureau of Meteorology resides with the Commonwealth of Australia.